createdAt,value
2022-11-16T00:00:13.017Z,6.16
2022-11-16T00:02:45.385Z,6.25
2022-11-16T00:05:18.561Z,6.27
2022-11-16T00:07:51.662Z,6.29
2022-11-16T00:10:24.099Z,6.36
2022-11-16T00:12:56.569Z,6.46
2022-11-16T00:15:29.023Z,6.57
2022-11-16T00:18:01.384Z,6.64
2022-11-16T00:20:33.795Z,6.71
2022-11-16T00:23:06.815Z,6.75
2022-11-16T00:25:39.230Z,6.84
2022-11-16T00:28:12.206Z,6.92
2022-11-16T00:30:44.577Z,7.00
2022-11-16T00:33:16.961Z,7.05
2022-11-16T00:35:49.358Z,7.05
2022-11-16T00:38:22.739Z,6.98
2022-11-16T00:40:55.170Z,7.14
2022-11-16T00:43:27.768Z,7.17
2022-11-16T00:46:00.200Z,7.14
2022-11-16T00:48:32.901Z,7.17
2022-11-16T00:51:05.931Z,7.16
2022-11-16T00:53:39.385Z,7.13
2022-11-16T00:56:12.080Z,7.17
2022-11-16T00:58:48.840Z,7.20
2022-11-16T01:01:22.801Z,7.22
2022-11-16T01:03:56.674Z,7.18
2022-11-16T01:06:29.100Z,7.14
2022-11-16T01:09:02.244Z,7.14
2022-11-16T01:11:52.723Z,7.13
2022-11-16T01:14:25.141Z,7.06
2022-11-16T01:16:57.857Z,7.04
2022-11-16T01:19:30.686Z,7.03
2022-11-16T01:22:03.547Z,6.98
2022-11-16T01:24:36.685Z,6.92
2022-11-16T01:27:09.077Z,6.81
2022-11-16T01:29:45.029Z,6.71
2022-11-16T01:32:17.584Z,6.57
2022-11-16T01:34:50.428Z,6.47
2022-11-16T01:37:31.042Z,6.42
2022-11-16T01:40:05.192Z,6.40
2022-11-16T01:42:38.894Z,6.40
2022-11-16T01:45:22.445Z,6.32
2022-11-16T01:47:57.604Z,6.34
2022-11-16T01:50:35.666Z,6.37
2022-11-16T01:53:10.401Z,6.28
2022-11-16T01:55:56.986Z,6.42
2022-11-16T01:58:34.769Z,6.44
2022-11-16T02:01:17.965Z,6.49
2022-11-16T02:03:55.542Z,6.43
2022-11-16T02:06:35.361Z,6.52
2022-11-16T02:09:56.610Z,6.53
2022-11-16T02:12:57.043Z,6.59
2022-11-16T02:15:42.939Z,6.58
2022-11-16T02:18:31.374Z,6.41
2022-11-16T02:21:14.812Z,6.39
2022-11-16T02:24:19.560Z,6.47
2022-11-16T02:27:22.739Z,6.42
2022-11-16T02:29:56.834Z,6.32
2022-11-16T02:32:33.382Z,6.29
2022-11-16T02:35:12.742Z,6.36
2022-11-16T02:37:52.480Z,6.34
2022-11-16T02:40:30.054Z,6.33
2022-11-16T02:43:07.500Z,6.26
2022-11-16T02:45:44.623Z,6.28
2022-11-16T02:48:22.613Z,6.23
2022-11-16T02:50:55.799Z,6.19
2022-11-16T02:53:28.208Z,6.06
2022-11-16T02:56:04.314Z,6.04
2022-11-16T02:58:37.235Z,6.06
2022-11-16T03:01:16.082Z,6.04
2022-11-16T03:03:53.418Z,6.16
2022-11-16T03:06:29.710Z,6.11
2022-11-16T03:09:08.290Z,6.15
2022-11-16T03:11:59.488Z,6.17
2022-11-16T03:14:38.004Z,6.27
2022-11-16T03:17:17.440Z,6.38
2022-11-16T03:19:57.637Z,6.39
2022-11-16T03:22:35.047Z,6.37
2022-11-16T03:25:10.490Z,6.43
2022-11-16T03:27:49.481Z,6.51
2022-11-16T03:30:24.882Z,6.55
2022-11-16T03:33:08.071Z,6.50
2022-11-16T03:35:49.033Z,6.54
2022-11-16T03:38:24.836Z,6.43
2022-11-16T03:41:01.373Z,6.51
2022-11-16T03:43:36.554Z,6.58
2022-11-16T03:46:10.199Z,6.71
2022-11-16T03:48:43.465Z,6.74
2022-11-16T03:51:25.414Z,6.72
2022-11-16T03:53:59.387Z,6.74
2022-11-16T03:56:31.888Z,6.77
2022-11-16T03:59:04.344Z,6.83
2022-11-16T04:01:40.436Z,6.69
2022-11-16T04:04:35.944Z,6.71
2022-11-16T04:07:28.330Z,6.53
2022-11-16T04:10:18.683Z,6.55
2022-11-16T04:13:10.562Z,6.60
2022-11-16T04:16:01.478Z,6.58
2022-11-16T04:18:52.011Z,6.52
2022-11-16T04:21:47.026Z,6.47
2022-11-16T04:24:22.747Z,6.39
2022-11-16T04:27:17.158Z,6.27
2022-11-16T04:29:50.434Z,6.32
2022-11-16T04:32:41.479Z,6.33
2022-11-16T04:35:40.843Z,6.41
2022-11-16T04:38:15.209Z,6.52
2022-11-16T04:40:47.609Z,6.57
2022-11-16T04:43:20.653Z,6.63
2022-11-16T04:46:11.043Z,6.66
2022-11-16T04:48:45.298Z,6.69
2022-11-16T04:51:17.721Z,6.62
2022-11-16T04:53:51.009Z,6.62
2022-11-16T04:56:27.586Z,6.69
2022-11-16T04:59:00.358Z,6.69
2022-11-16T05:01:50.920Z,6.72
2022-11-16T05:04:23.707Z,6.72
2022-11-16T05:06:56.835Z,6.83
2022-11-16T05:09:29.965Z,6.82
2022-11-16T05:12:02.981Z,6.77
2022-11-16T05:14:35.490Z,6.89
2022-11-16T05:17:08.498Z,6.92
2022-11-16T05:19:59.883Z,6.88
2022-11-16T05:22:34.653Z,6.92
2022-11-16T05:25:10.398Z,6.89
2022-11-16T05:27:43.338Z,6.88
2022-11-16T05:30:16.618Z,6.90
2022-11-16T05:32:49.285Z,6.82
2022-11-16T05:35:24.421Z,6.91
2022-11-16T05:37:57.066Z,6.87
2022-11-16T05:40:32.202Z,6.88
2022-11-16T05:43:04.598Z,6.93
2022-11-16T05:45:42.957Z,6.79
2022-11-16T05:48:17.150Z,6.90
2022-11-16T05:50:49.704Z,6.90
2022-11-16T05:53:28.593Z,6.93
2022-11-16T05:56:01.846Z,7.00
2022-11-16T05:58:35.741Z,6.91
2022-11-16T06:01:08.908Z,6.93
2022-11-16T06:03:41.443Z,7.01
2022-11-16T06:06:13.935Z,7.06
2022-11-16T06:08:47.293Z,6.89
2022-11-16T06:11:25.645Z,7.04
2022-11-16T06:13:58.097Z,6.79
2022-11-16T06:16:31.051Z,6.90
2022-11-16T06:19:04.762Z,7.05
2022-11-16T06:21:37.135Z,7.09
2022-11-16T06:24:13.105Z,6.93
2022-11-16T06:26:47.875Z,6.82
2022-11-16T06:29:20.483Z,6.88
2022-11-16T06:31:52.914Z,6.97
2022-11-16T06:34:25.454Z,7.06
2022-11-16T06:36:57.913Z,6.91
2022-11-16T06:39:30.418Z,7.07
2022-11-16T06:42:04.125Z,7.09
2022-11-16T06:44:36.603Z,7.12
2022-11-16T06:47:10.040Z,7.05
2022-11-16T06:49:42.534Z,7.10
2022-11-16T06:52:22.090Z,7.24
2022-11-16T06:54:55.390Z,7.07
2022-11-16T06:57:28.697Z,7.08
2022-11-16T07:00:01.125Z,7.22
2022-11-16T07:02:33.633Z,7.25
2022-11-16T07:05:08.153Z,7.27
2022-11-16T07:07:40.672Z,7.23
2022-11-16T07:10:13.909Z,7.20
2022-11-16T07:12:48.468Z,7.25
2022-11-16T07:15:22.430Z,7.29
2022-11-16T07:17:54.855Z,7.30
2022-11-16T07:20:27.276Z,7.27
2022-11-16T07:23:00.728Z,7.43
2022-11-16T07:25:34.142Z,7.46
2022-11-16T07:28:08.136Z,7.36
2022-11-16T07:30:43.988Z,7.29
2022-11-16T07:33:19.468Z,7.40
2022-11-16T07:36:16.751Z,7.30
2022-11-16T07:38:49.246Z,7.47
2022-11-16T07:41:21.720Z,7.45
2022-11-16T07:44:08.435Z,7.47
2022-11-16T07:46:47.943Z,7.43
2022-11-16T07:49:21.809Z,7.59
2022-11-16T07:52:03.393Z,7.50
2022-11-16T07:54:56.017Z,7.56
2022-11-16T07:57:31.051Z,7.42
2022-11-16T08:00:08.953Z,7.43
2022-11-16T08:02:51.789Z,7.61
2022-11-16T08:05:26.051Z,7.60
2022-11-16T08:07:59.679Z,7.62
2022-11-16T08:10:32.280Z,7.76
2022-11-16T08:13:05.343Z,7.80
2022-11-16T08:15:38.411Z,7.88
2022-11-16T08:18:13.376Z,8.01
2022-11-16T08:20:46.005Z,8.04
2022-11-16T08:23:18.566Z,8.17
2022-11-16T08:25:51.802Z,8.24
2022-11-16T08:28:24.201Z,8.46
2022-11-16T08:30:58.146Z,8.52
2022-11-16T08:33:30.884Z,8.80
2022-11-16T08:36:09.486Z,8.93
2022-11-16T08:38:47.153Z,8.99
2022-11-16T08:41:20.602Z,9.17
2022-11-16T08:43:53.563Z,9.34
2022-11-16T08:46:28.727Z,9.38
2022-11-16T08:49:09.301Z,9.64
2022-11-16T08:51:41.747Z,9.85
2022-11-16T08:54:14.147Z,9.80
2022-11-16T08:56:48.025Z,9.75
2022-11-16T08:59:20.434Z,9.75
2022-11-16T09:01:56.956Z,9.75
2022-11-16T09:04:34.079Z,9.68
2022-11-16T09:07:09.746Z,9.67
2022-11-16T09:09:42.033Z,9.83
2022-11-16T09:12:14.424Z,9.99
2022-11-16T09:14:46.773Z,10.29
2022-11-16T09:17:23.088Z,10.45
2022-11-16T09:19:55.767Z,10.67
2022-11-16T09:22:28.141Z,10.84
2022-11-16T09:25:00.874Z,11.01
2022-11-16T09:27:33.208Z,11.06
2022-11-16T09:30:07.029Z,11.35
2022-11-16T09:32:40.033Z,11.52
2022-11-16T09:35:12.461Z,11.51
2022-11-16T09:37:44.806Z,11.60
2022-11-16T09:40:17.511Z,11.81
2022-11-16T09:43:02.395Z,11.84
2022-11-16T09:45:43.882Z,11.87
2022-11-16T09:48:19.532Z,11.85
2022-11-16T09:51:06.732Z,12.05
2022-11-16T09:53:44.488Z,12.10
2022-11-16T09:56:22.454Z,12.33
2022-11-16T09:59:02.453Z,12.42
2022-11-16T10:01:36.992Z,12.60
2022-11-16T10:04:15.282Z,12.63
2022-11-16T10:06:52.904Z,12.86
2022-11-16T10:09:25.647Z,13.05
2022-11-16T10:12:11.284Z,13.06
2022-11-16T10:15:14.580Z,13.05
2022-11-16T10:18:11.308Z,13.22
2022-11-16T10:21:12.290Z,13.35
2022-11-16T10:24:01.462Z,13.36
2022-11-16T10:26:41.012Z,13.16
2022-11-16T10:29:33.797Z,12.70
2022-11-16T10:32:16.556Z,12.53
2022-11-16T10:34:52.873Z,12.69
2022-11-16T10:37:30.742Z,12.67
2022-11-16T10:40:16.732Z,12.88
2022-11-16T10:42:59.972Z,13.00
2022-11-16T10:45:43.096Z,13.05
2022-11-16T10:48:27.129Z,12.81
2022-11-16T10:50:59.522Z,12.66
2022-11-16T10:53:35.923Z,12.54
2022-11-16T10:56:17.141Z,12.51
2022-11-16T10:58:55.448Z,12.68
2022-11-16T11:01:31.331Z,12.44
2022-11-16T11:04:15.931Z,12.44
2022-11-16T11:06:51.185Z,12.34
2022-11-16T11:09:27.986Z,12.56
2022-11-16T11:12:30.686Z,12.66
2022-11-16T11:15:15.268Z,12.39
2022-11-16T11:17:49.527Z,12.58
2022-11-16T11:20:24.064Z,12.37
2022-11-16T11:22:58.153Z,12.39
2022-11-16T11:25:33.831Z,12.26
2022-11-16T11:28:16.314Z,12.20
2022-11-16T11:30:57.679Z,12.10
2022-11-16T11:33:33.815Z,12.22
2022-11-16T11:36:12.651Z,12.32
2022-11-16T11:38:56.936Z,12.32
2022-11-16T11:41:36.514Z,12.39
2022-11-16T11:44:16.548Z,12.43
2022-11-16T11:49:52.620Z,12.41
2022-11-16T11:52:32.386Z,12.24
2022-11-16T11:55:08.268Z,12.30
2022-11-16T11:57:43.992Z,12.14
2022-11-16T12:00:17.709Z,12.37
2022-11-16T12:03:17.023Z,12.55
2022-11-16T12:06:07.364Z,12.32
2022-11-16T12:09:00.474Z,12.34
2022-11-16T12:11:44.262Z,12.48
2022-11-16T12:14:28.792Z,12.40
2022-11-16T12:17:09.352Z,12.37
2022-11-16T12:20:05.194Z,12.30
2022-11-16T12:22:54.076Z,12.36
2022-11-16T12:25:33.830Z,12.32
2022-11-16T12:28:21.573Z,12.19
2022-11-16T12:31:18.637Z,12.25
2022-11-16T12:34:01.089Z,12.17
2022-11-16T12:36:45.710Z,12.31
2022-11-16T12:39:23.690Z,12.16
2022-11-16T12:42:22.797Z,12.07
2022-11-16T12:45:31.980Z,12.21
2022-11-16T12:48:32.098Z,12.16
2022-11-16T12:51:07.886Z,12.13
2022-11-16T12:53:52.305Z,12.13
2022-11-16T12:56:49.965Z,12.14
2022-11-16T12:59:42.599Z,12.05
2022-11-16T13:02:27.793Z,11.97
2022-11-16T13:05:11.724Z,11.94
2022-11-16T13:07:48.248Z,11.95
2022-11-16T13:10:26.236Z,11.93
2022-11-16T13:16:06.231Z,12.14
2022-11-16T13:18:41.616Z,12.15
2022-11-16T13:21:24.485Z,12.11
2022-11-16T13:24:09.551Z,12.22
2022-11-16T13:26:47.923Z,12.28
2022-11-16T13:29:29.598Z,12.09
2022-11-16T13:32:11.413Z,12.00
2022-11-16T13:34:45.015Z,12.09
2022-11-16T13:37:46.556Z,12.13
2022-11-16T13:40:27.223Z,12.16
2022-11-16T13:43:13.389Z,12.27
2022-11-16T13:45:58.909Z,11.92
2022-11-16T13:48:34.789Z,12.17
2022-11-16T13:51:17.700Z,12.12
2022-11-16T13:56:49.318Z,12.03
2022-11-16T13:59:25.783Z,12.01
2022-11-16T14:01:59.749Z,12.12
2022-11-16T14:04:57.164Z,12.00
2022-11-16T14:07:42.375Z,12.00
2022-11-16T14:10:54.818Z,11.90
2022-11-16T14:13:39.569Z,11.94
2022-11-16T14:16:54.699Z,11.74
2022-11-16T14:19:54.574Z,11.82
2022-11-16T14:22:35.016Z,11.71
2022-11-16T14:25:18.884Z,11.74
2022-11-16T14:27:59.688Z,11.80
2022-11-16T14:30:43.061Z,11.80
2022-11-16T14:33:27.779Z,11.77
2022-11-16T14:36:02.665Z,11.91
2022-11-16T14:38:38.317Z,11.84
2022-11-16T14:41:19.677Z,11.87
2022-11-16T14:43:55.024Z,11.82
2022-11-16T14:46:34.474Z,11.58
2022-11-16T14:49:14.213Z,11.57
2022-11-16T14:51:48.593Z,11.49
2022-11-16T14:54:27.122Z,11.52
2022-11-16T14:57:01.443Z,11.43
2022-11-16T14:59:33.812Z,11.50
2022-11-16T15:02:19.180Z,11.35
2022-11-16T15:04:52.987Z,11.33
2022-11-16T15:07:28.405Z,11.33
2022-11-16T15:10:00.975Z,11.45
2022-11-16T15:12:42.405Z,11.33
2022-11-16T15:15:17.121Z,11.33
2022-11-16T15:18:06.488Z,11.41
2022-11-16T15:20:48.856Z,11.43
2022-11-16T15:23:23.865Z,11.33
2022-11-16T15:26:01.655Z,11.46
2022-11-16T15:28:34.210Z,11.46
2022-11-16T15:31:08.761Z,11.37
2022-11-16T15:33:43.511Z,11.33
2022-11-16T15:36:23.979Z,11.28
2022-11-16T15:38:58.138Z,11.21
2022-11-16T15:41:30.786Z,11.20
2022-11-16T15:44:15.036Z,11.20
2022-11-16T15:46:50.572Z,11.09
2022-11-16T15:49:29.514Z,11.01
2022-11-16T15:52:01.984Z,11.09
2022-11-16T15:54:55.276Z,10.95
2022-11-16T15:57:27.678Z,10.97
2022-11-16T16:00:00.188Z,10.86
2022-11-16T16:02:32.655Z,10.81
2022-11-16T16:05:06.833Z,10.87
2022-11-16T16:07:40.759Z,10.74
2022-11-16T16:10:23.200Z,10.62
2022-11-16T16:12:56.971Z,10.69
2022-11-16T16:15:33.198Z,10.39
2022-11-16T16:18:39.940Z,10.40
2022-11-16T16:21:14.383Z,10.19
2022-11-16T16:23:48.014Z,10.21
2022-11-16T16:26:21.827Z,10.05
2022-11-16T16:28:54.209Z,10.13
2022-11-16T16:31:26.633Z,10.12
2022-11-16T16:33:59.284Z,9.92
2022-11-16T16:36:32.561Z,9.97
2022-11-16T16:39:05.017Z,9.86
2022-11-16T16:41:38.564Z,9.84
2022-11-16T16:44:14.957Z,9.76
2022-11-16T16:46:47.698Z,9.69
2022-11-16T16:49:20.187Z,9.87
2022-11-16T16:51:53.688Z,9.77
2022-11-16T16:54:28.505Z,9.61
2022-11-16T16:57:02.016Z,9.64
2022-11-16T16:59:34.410Z,9.61
2022-11-16T17:02:09.255Z,9.69
2022-11-16T17:04:43.451Z,9.54
2022-11-16T17:07:17.355Z,9.50
2022-11-16T17:09:53.281Z,9.49
2022-11-16T17:12:25.959Z,9.54
2022-11-16T17:15:00.843Z,9.50
2022-11-16T17:17:35.503Z,9.59
2022-11-16T17:20:11.001Z,9.61
2022-11-16T17:22:45.463Z,9.53
2022-11-16T17:25:18.065Z,9.65
2022-11-16T17:27:50.524Z,9.64
2022-11-16T17:30:24.933Z,9.63
2022-11-16T17:32:57.417Z,9.72
2022-11-16T17:35:29.868Z,9.53
2022-11-16T17:38:05.470Z,9.69
2022-11-16T17:40:38.021Z,9.56
2022-11-16T17:43:11.187Z,9.56
2022-11-16T17:45:45.909Z,9.51
2022-11-16T17:48:19.428Z,9.57
2022-11-16T17:50:52.293Z,9.58
2022-11-16T17:53:32.520Z,9.60
2022-11-16T17:56:06.538Z,9.53
2022-11-16T17:58:39.659Z,9.48
2022-11-16T18:01:13.291Z,9.50
2022-11-16T18:03:46.727Z,9.59
2022-11-16T18:06:20.892Z,9.53
2022-11-16T18:08:54.237Z,9.64
2022-11-16T18:11:27.855Z,9.67
2022-11-16T18:14:01.001Z,9.77
2022-11-16T18:16:34.067Z,9.80
2022-11-16T18:19:07.000Z,9.91
2022-11-16T18:21:40.393Z,9.98
2022-11-16T18:24:14.096Z,10.01
2022-11-16T18:26:46.479Z,9.87
2022-11-16T18:29:20.846Z,9.88
2022-11-16T18:31:53.223Z,10.05
2022-11-16T18:34:25.697Z,10.08
2022-11-16T18:36:58.073Z,10.12
2022-11-16T18:39:31.704Z,10.07
2022-11-16T18:42:04.817Z,10.10
2022-11-16T18:44:37.467Z,9.91
2022-11-16T18:47:09.867Z,10.07
2022-11-16T18:49:42.346Z,9.96
2022-11-16T18:52:16.891Z,9.85
2022-11-16T18:54:50.644Z,9.97
2022-11-16T18:57:23.035Z,9.76
2022-11-16T18:59:56.386Z,9.80
2022-11-16T19:02:28.804Z,9.79
2022-11-16T19:05:01.204Z,9.76
2022-11-16T19:07:35.200Z,9.96
2022-11-16T19:10:09.550Z,9.91
2022-11-16T19:12:41.931Z,10.04
2022-11-16T19:15:14.388Z,10.06
2022-11-16T19:18:14.273Z,10.04
2022-11-16T19:20:39.460Z,9.97
2022-11-16T19:23:11.840Z,9.98
2022-11-16T19:25:45.246Z,10.02
2022-11-16T19:28:17.906Z,10.07
2022-11-16T19:30:50.344Z,10.15
2022-11-16T19:33:23.331Z,10.08
2022-11-16T19:35:55.674Z,10.11
2022-11-16T19:38:29.384Z,10.06
2022-11-16T19:41:02.763Z,10.00
2022-11-16T19:43:35.623Z,10.14
2022-11-16T19:46:10.091Z,10.21
2022-11-16T19:48:45.056Z,10.24
2022-11-16T19:51:22.109Z,10.23
2022-11-16T19:53:55.225Z,10.16
2022-11-16T19:56:29.070Z,10.17
2022-11-16T19:59:01.526Z,10.04
2022-11-16T20:01:33.978Z,10.16
2022-11-16T20:04:06.411Z,9.95
2022-11-16T20:06:39.961Z,9.92
2022-11-16T20:09:12.327Z,9.83
2022-11-16T20:11:45.387Z,9.82
2022-11-16T20:14:17.786Z,9.71
2022-11-16T20:16:50.123Z,9.84
2022-11-16T20:19:22.397Z,9.85
2022-11-16T20:21:54.718Z,9.82
2022-11-16T20:24:27.061Z,9.79
2022-11-16T20:27:00.081Z,9.99
2022-11-16T20:29:32.406Z,9.86
2022-11-16T20:32:05.021Z,10.01
2022-11-16T20:34:37.443Z,9.97
2022-11-16T20:37:09.808Z,10.06
2022-11-16T20:39:42.151Z,10.03
2022-11-16T20:42:15.164Z,10.03
2022-11-16T20:44:47.533Z,10.07
2022-11-16T20:47:19.892Z,9.99
2022-11-16T20:49:52.315Z,10.07
2022-11-16T20:52:25.096Z,10.20
2022-11-16T20:54:57.499Z,10.08
2022-11-16T20:57:30.614Z,10.12
2022-11-16T21:00:04.391Z,10.20
2022-11-16T21:02:36.730Z,10.29
2022-11-16T21:05:09.492Z,10.30
2022-11-16T21:07:43.193Z,10.29
2022-11-16T21:10:19.233Z,10.37
2022-11-16T21:13:10.721Z,10.33
2022-11-16T21:15:43.049Z,10.48
2022-11-16T21:18:15.371Z,10.54
2022-11-16T21:20:47.677Z,10.59
2022-11-16T21:23:20.005Z,10.48
2022-11-16T21:25:52.404Z,10.61
2022-11-16T21:28:25.765Z,10.59
2022-11-16T21:30:59.326Z,10.55
2022-11-16T21:33:32.081Z,10.48
2022-11-16T21:36:05.672Z,10.59
2022-11-16T21:38:38.311Z,10.54
2022-11-16T21:41:11.728Z,10.62
2022-11-16T21:43:45.416Z,10.56
2022-11-16T21:46:19.402Z,10.71
2022-11-16T21:48:53.122Z,10.73
2022-11-16T21:51:26.676Z,10.79
2022-11-16T21:53:59.007Z,10.72
2022-11-16T21:56:31.428Z,10.67
2022-11-16T21:59:04.428Z,10.56
2022-11-16T22:01:51.316Z,10.72
2022-11-16T22:04:41.624Z,10.72
2022-11-16T22:07:32.767Z,10.74
2022-11-16T22:10:07.152Z,10.71
2022-11-16T22:12:39.510Z,10.80
2022-11-16T22:15:12.598Z,10.71
2022-11-16T22:17:45.214Z,10.82
2022-11-16T22:20:17.642Z,10.82
2022-11-16T22:22:50.029Z,10.84
2022-11-16T22:25:22.549Z,10.76
2022-11-16T22:30:51.738Z,10.81
2022-11-16T22:33:24.524Z,10.86
2022-11-16T22:35:57.169Z,10.96
2022-11-16T22:38:29.949Z,11.01
2022-11-16T22:41:02.447Z,10.91
2022-11-16T22:43:36.744Z,10.97
2022-11-16T22:46:10.805Z,10.94
2022-11-16T22:48:44.276Z,10.88
2022-11-16T22:51:19.629Z,11.04
2022-11-16T22:53:53.541Z,10.81
2022-11-16T22:56:27.150Z,10.86
2022-11-16T22:59:00.400Z,10.97
2022-11-16T23:01:33.411Z,10.83
2022-11-16T23:04:05.785Z,10.88
2022-11-16T23:06:38.365Z,10.91
2022-11-16T23:09:10.675Z,10.93
2022-11-16T23:12:01.231Z,10.82
2022-11-16T23:14:51.708Z,10.82
2022-11-16T23:17:24.755Z,10.82
2022-11-16T23:20:17.776Z,11.02
2022-11-16T23:23:08.368Z,11.03
2022-11-16T23:34:57.806Z,10.85
2022-11-16T23:37:30.195Z,10.93
2022-11-16T23:40:06.366Z,10.95
2022-11-16T23:42:56.886Z,10.93
2022-11-16T23:45:29.336Z,11.02
2022-11-16T23:48:01.882Z,10.93
2022-11-16T23:50:35.700Z,11.01
2022-11-16T23:53:09.098Z,11.08
2022-11-16T23:55:41.490Z,11.05
2022-11-16T23:58:14.674Z,11.05
